Time;durP1;ratioP1;P1;durP2;ratioP2;P2;SDS_P1;SDS_P2;PMS_P1;PMS_P2;Temp;Humidity;BMP_temperature;BMP_pressure;BME280_temperature;BME280_humidity;BME280_pressure;Samples;Min_cycle;Max_cycle;Signal;HPM_P1;HPM_P2
2022/05/27 00:00:05;;;;;;;;;;;15.80;99.90;;;;;;8372341;28;19921;-74
2022/05/27 00:04:07;;;;;;;;;;;15.70;99.90;;;;;;8370706;28;20317;-74
2022/05/27 00:08:09;;;;;;;;;;;15.70;99.90;;;;;;8369987;28;19974;-74
2022/05/27 00:12:11;;;;;;;;;;;15.70;99.90;;;;;;8384059;28;19928;-73
2022/05/27 00:16:13;;;;;;;;;;;15.40;99.90;;;;;;8371916;28;19975;-73
2022/05/27 00:20:14;;;;;;;;;;;15.20;99.90;;;;;;8368825;28;21595;-72
2022/05/27 00:24:16;;;;;;;;;;;15.00;99.90;;;;;;8381281;28;19936;-73
2022/05/27 00:28:18;;;;;;;;;;;14.90;99.90;;;;;;8368094;28;19928;-72
2022/05/27 00:32:19;;;;;;;;;;;14.80;99.90;;;;;;8370482;28;20483;-72
2022/05/27 00:36:21;;;;;;;;;;;14.60;99.90;;;;;;8366409;28;19928;-73
2022/05/27 00:40:23;;;;;;;;;;;14.60;99.90;;;;;;8358572;28;19920;-73
2022/05/27 00:44:25;;;;;;;;;;;14.50;99.90;;;;;;8376135;28;19947;-73
2022/05/27 00:48:27;;;;;;;;;;;14.50;99.90;;;;;;8369475;28;19959;-73
2022/05/27 00:52:30;;;;;;;;;;;14.40;99.90;;;;;;8366615;28;19935;-73
2022/05/27 00:56:34;;;;;;;;;;;14.40;99.90;;;;;;8358936;28;19927;-74
2022/05/27 01:00:36;;;;;;;;;;;14.40;99.90;;;;;;8359024;28;19939;-74
2022/05/27 01:04:38;;;;;;;;;;;14.40;99.90;;;;;;8356811;28;19928;-73
2022/05/27 01:08:41;;;;;;;;;;;14.40;99.90;;;;;;8354194;28;19920;-73
2022/05/27 01:12:58;;;;;;;;;;;14.40;99.90;;;;;;8359056;28;19920;-73
2022/05/27 01:17:08;;;;;;;;;;;14.50;99.90;;;;;;8377309;28;20332;-73
2022/05/27 01:21:14;;;;;;;;;;;14.60;99.90;;;;;;8389052;27;19951;-74
2022/05/27 01:25:34;;;;;;;;;;;14.60;99.90;;;;;;8359467;28;19921;-73
2022/05/27 01:30:02;;;;;;;;;;;14.60;99.90;;;;;;8376087;28;19935;-73
2022/05/27 01:34:06;;;;;;;;;;;14.70;99.90;;;;;;8343258;28;19935;-73
2022/05/27 01:38:11;;;;;;;;;;;14.70;99.90;;;;;;8369487;28;19928;-73
2022/05/27 01:42:15;;;;;;;;;;;14.70;99.90;;;;;;8363326;28;19931;-73
2022/05/27 01:46:41;;;;;;;;;;;14.70;99.90;;;;;;8371477;28;20344;-73
2022/05/27 01:50:45;;;;;;;;;;;14.70;99.90;;;;;;8363041;28;19928;-73
2022/05/27 01:54:47;;;;;;;;;;;14.70;99.90;;;;;;8378863;28;19924;-73
2022/05/27 01:58:55;;;;;;;;;;;14.70;99.90;;;;;;8368659;28;19935;-74
2022/05/27 02:03:09;;;;;;;;;;;14.70;99.90;;;;;;8368309;28;20004;-73
2022/05/27 02:07:13;;;;;;;;;;;14.60;99.90;;;;;;8363367;28;20015;-74
2022/05/27 02:11:17;;;;;;;;;;;14.60;99.90;;;;;;8368691;28;20532;-74
2022/05/27 02:15:22;;;;;;;;;;;14.60;99.90;;;;;;8360732;28;19928;-73
2022/05/27 02:19:27;;;;;;;;;;;14.50;99.90;;;;;;8359152;28;19921;-73
2022/05/27 02:23:36;;;;;;;;;;;14.50;99.90;;;;;;8357192;28;19920;-73
2022/05/27 02:27:44;;;;;;;;;;;14.40;99.90;;;;;;8359325;28;19927;-74
2022/05/27 02:31:47;;;;;;;;;;;14.40;99.90;;;;;;8362601;28;20315;-74
2022/05/27 02:35:50;;;;;;;;;;;14.40;99.90;;;;;;8365131;28;20002;-74
2022/05/27 02:39:52;;;;;;;;;;;14.40;99.90;;;;;;8365233;28;19954;-74
2022/05/27 02:44:19;;;;;;;;;;;14.30;99.90;;;;;;8365635;28;19935;-73
2022/05/27 02:48:40;;;;;;;;;;;14.30;99.90;;;;;;8395789;28;19947;-73
2022/05/27 02:52:45;;;;;;;;;;;14.30;99.90;;;;;;8363577;28;19921;-73
2022/05/27 02:56:48;;;;;;;;;;;14.40;99.90;;;;;;8360217;28;20396;-74
2022/05/27 03:00:50;;;;;;;;;;;14.30;99.90;;;;;;8366581;28;19943;-73
2022/05/27 03:04:58;;;;;;;;;;;14.30;99.90;;;;;;8362479;28;20272;-74
2022/05/27 03:09:15;;;;;;;;;;;14.30;99.90;;;;;;8363564;28;20307;-73
2022/05/27 03:13:17;;;;;;;;;;;14.30;99.90;;;;;;8377825;28;19967;-74
2022/05/27 03:17:42;;;;;;;;;;;14.30;99.90;;;;;;8364602;28;19920;-73
2022/05/27 03:21:47;;;;;;;;;;;14.30;99.90;;;;;;8364789;28;20395;-73
2022/05/27 03:25:50;;;;;;;;;;;14.20;99.90;;;;;;8367675;28;19929;-74
2022/05/27 03:30:00;;;;;;;;;;;14.20;99.90;;;;;;8363514;28;19924;-74
2022/05/27 03:34:07;;;;;;;;;;;14.20;99.90;;;;;;8369210;28;19928;-73
2022/05/27 03:38:28;;;;;;;;;;;14.20;99.90;;;;;;8394497;28;20402;-74
2022/05/27 03:42:30;;;;;;;;;;;14.20;99.90;;;;;;8371360;28;19928;-73
2022/05/27 03:46:34;;;;;;;;;;;14.20;99.90;;;;;;8371308;28;20031;-74
2022/05/27 03:50:36;;;;;;;;;;;14.10;99.90;;;;;;8372745;28;19929;-74
2022/05/27 03:54:38;;;;;;;;;;;14.10;99.90;;;;;;8366609;28;19939;-73
2022/05/27 03:58:40;;;;;;;;;;;14.10;99.90;;;;;;8397925;27;19928;-73
2022/05/27 04:02:42;;;;;;;;;;;14.20;99.90;;;;;;8377407;28;19931;-73
2022/05/27 04:06:43;;;;;;;;;;;14.10;99.90;;;;;;8374349;28;19946;-74
2022/05/27 04:10:48;;;;;;;;;;;14.10;99.90;;;;;;8389496;28;20013;-74
2022/05/27 04:15:15;;;;;;;;;;;14.10;99.90;;;;;;8373013;28;20022;-73
2022/05/27 04:19:17;;;;;;;;;;;14.20;99.90;;;;;;8382430;28;20391;-74
2022/05/27 04:23:19;;;;;;;;;;;14.20;99.90;;;;;;8383868;28;19920;-74
2022/05/27 04:27:21;;;;;;;;;;;14.20;99.90;;;;;;8381437;28;19924;-74
2022/05/27 04:31:23;;;;;;;;;;;14.20;99.90;;;;;;8377683;28;20279;-74
2022/05/27 04:35:24;;;;;;;;;;;14.20;99.90;;;;;;8368700;28;19981;-73
2022/05/27 04:39:26;;;;;;;;;;;14.30;99.90;;;;;;8398909;28;20415;-73
2022/05/27 04:43:28;;;;;;;;;;;14.30;99.90;;;;;;8379724;28;19931;-73
2022/05/27 04:47:30;;;;;;;;;;;14.30;99.90;;;;;;8377537;28;19964;-73
2022/05/27 04:51:31;;;;;;;;;;;14.30;99.90;;;;;;8386834;28;19928;-73
2022/05/27 04:55:34;;;;;;;;;;;14.40;99.90;;;;;;8379971;28;20265;-73
2022/05/27 04:59:39;;;;;;;;;;;14.40;99.90;;;;;;8395070;28;19962;-73
2022/05/27 05:03:41;;;;;;;;;;;14.40;99.90;;;;;;8388795;28;20319;-73
2022/05/27 05:07:44;;;;;;;;;;;14.50;99.90;;;;;;8386123;28;19935;-73
2022/05/27 05:11:46;;;;;;;;;;;14.60;99.90;;;;;;8381033;28;20280;-73
2022/05/27 05:15:48;;;;;;;;;;;14.60;99.90;;;;;;8397504;28;19935;-73
2022/05/27 05:19:53;;;;;;;;;;;14.70;99.90;;;;;;8400922;28;19921;-73
2022/05/27 05:23:55;;;;;;;;;;;14.70;99.90;;;;;;8382769;28;19938;-73
2022/05/27 05:27:56;;;;;;;;;;;14.70;99.90;;;;;;8384030;28;19927;-73
2022/05/27 05:31:58;;;;;;;;;;;14.80;99.90;;;;;;8372980;28;19929;-73
2022/05/27 05:36:00;;;;;;;;;;;14.80;99.90;;;;;;8394981;28;20067;-74
2022/05/27 05:40:02;;;;;;;;;;;14.90;99.90;;;;;;8381145;28;20395;-73
2022/05/27 05:44:04;;;;;;;;;;;14.90;99.90;;;;;;8380281;28;20363;-73
2022/05/27 05:48:07;;;;;;;;;;;14.80;99.90;;;;;;8379010;28;20123;-73
2022/05/27 05:52:08;;;;;;;;;;;14.90;99.90;;;;;;8392636;28;19939;-73
2022/05/27 05:56:10;;;;;;;;;;;14.90;99.90;;;;;;8376711;28;19939;-73
2022/05/27 06:00:13;;;;;;;;;;;14.90;99.90;;;;;;8375801;28;19925;-73
2022/05/27 06:04:15;;;;;;;;;;;14.90;99.90;;;;;;8373666;28;19932;-73
2022/05/27 06:08:18;;;;;;;;;;;14.90;99.90;;;;;;8385160;28;20377;-73
2022/05/27 06:12:23;;;;;;;;;;;14.90;99.90;;;;;;8388434;28;19920;-73
2022/05/27 06:16:25;;;;;;;;;;;15.00;99.90;;;;;;8387159;28;20455;-73
2022/05/27 06:20:31;;;;;;;;;;;15.00;99.90;;;;;;8382675;28;20013;-74
2022/05/27 06:24:34;;;;;;;;;;;15.00;99.90;;;;;;8403384;28;19943;-73
2022/05/27 06:37:24;;;;;;;;;;;15.20;99.90;;;;;;8369963;28;19921;-74
2022/05/27 06:41:26;;;;;;;;;;;15.20;99.90;;;;;;8368628;28;20368;-74
2022/05/27 06:45:27;;;;;;;;;;;15.20;99.90;;;;;;8371399;28;19936;-74
2022/05/27 06:49:29;;;;;;;;;;;15.20;99.90;;;;;;8368675;28;20302;-74
2022/05/27 06:53:31;;;;;;;;;;;15.20;99.90;;;;;;8369865;28;19936;-73
2022/05/27 06:57:33;;;;;;;;;;;15.20;99.90;;;;;;8388404;28;19928;-73
2022/05/27 07:01:35;;;;;;;;;;;15.20;99.90;;;;;;8381410;28;19921;-74
2022/05/27 07:05:37;;;;;;;;;;;15.30;99.90;;;;;;8387339;28;19920;-74
2022/05/27 07:09:38;;;;;;;;;;;15.40;99.90;;;;;;8382014;28;19931;-73
2022/05/27 07:13:41;;;;;;;;;;;15.40;99.90;;;;;;8396747;28;19929;-74
2022/05/27 07:17:43;;;;;;;;;;;15.60;99.90;;;;;;8369822;28;19927;-73
2022/05/27 07:21:45;;;;;;;;;;;15.50;99.90;;;;;;8374758;28;19928;-74
2022/05/27 07:25:46;;;;;;;;;;;15.50;99.90;;;;;;8384152;28;19928;-73
2022/05/27 07:29:48;;;;;;;;;;;15.50;99.90;;;;;;8400072;28;19995;-73
2022/05/27 07:33:49;;;;;;;;;;;15.50;99.90;;;;;;8400448;28;19920;-73
2022/05/27 07:37:51;;;;;;;;;;;15.40;99.90;;;;;;8382913;28;19943;-74
2022/05/27 07:41:53;;;;;;;;;;;15.40;99.90;;;;;;8382898;28;19925;-74
2022/05/27 07:45:56;;;;;;;;;;;15.50;99.90;;;;;;8383982;28;19940;-74
2022/05/27 07:49:58;;;;;;;;;;;15.50;99.90;;;;;;8387584;28;19928;-74
2022/05/27 07:54:00;;;;;;;;;;;15.50;99.90;;;;;;8385845;28;19928;-75
2022/05/27 07:58:01;;;;;;;;;;;15.50;99.90;;;;;;8384122;28;19944;-74
2022/05/27 08:02:03;;;;;;;;;;;15.50;99.90;;;;;;8380650;28;19928;-75
2022/05/27 08:06:05;;;;;;;;;;;15.40;99.90;;;;;;8380374;28;19994;-74
2022/05/27 08:10:07;;;;;;;;;;;15.50;99.90;;;;;;8369666;28;19920;-73
2022/05/27 08:14:09;;;;;;;;;;;15.50;99.90;;;;;;8366317;28;19935;-73
2022/05/27 08:18:11;;;;;;;;;;;15.50;99.90;;;;;;8379065;28;19925;-73
2022/05/27 08:22:12;;;;;;;;;;;15.50;99.90;;;;;;8362482;28;19967;-73
2022/05/27 08:26:14;;;;;;;;;;;15.60;99.90;;;;;;8365416;28;19947;-75
2022/05/27 08:30:17;;;;;;;;;;;15.60;99.90;;;;;;8364401;28;19999;-73
2022/05/27 08:38:40;;;;;;;;;;;15.70;99.90;;;;;;8365324;28;19935;-74
2022/05/27 08:42:57;;;;;;;;;;;15.80;99.90;;;;;;8362697;28;19920;-75
2022/05/27 08:47:08;;;;;;;;;;;15.90;99.90;;;;;;8366735;28;19952;-74
2022/05/27 08:51:16;;;;;;;;;;;15.90;99.90;;;;;;8364537;28;19932;-74
2022/05/27 09:00:07;;;;;;;;;;;15.90;99.90;;;;;;8356378;28;19920;-74
2022/05/27 09:04:19;;;;;;;;;;;15.90;99.90;;;;;;8363073;28;20343;-73
2022/05/27 09:08:23;;;;;;;;;;;16.00;99.90;;;;;;8362439;28;19959;-74
2022/05/27 09:12:35;;;;;;;;;;;15.90;99.90;;;;;;8376293;28;20304;-73
2022/05/27 09:16:37;;;;;;;;;;;15.80;99.90;;;;;;8364813;28;19932;-73
2022/05/27 09:21:02;;;;;;;;;;;15.80;99.90;;;;;;8364244;28;20399;-73
2022/05/27 09:25:10;;;;;;;;;;;15.90;99.90;;;;;;8370425;28;19920;-73
2022/05/27 09:29:21;;;;;;;;;;;15.80;99.90;;;;;;8364553;28;20276;-75
2022/05/27 09:33:26;;;;;;;;;;;15.80;99.90;;;;;;8341568;28;19928;-73
2022/05/27 09:37:31;;;;;;;;;;;15.70;99.90;;;;;;8340257;28;19935;-73
2022/05/27 09:41:46;;;;;;;;;;;15.70;99.90;;;;;;8352551;28;19928;-73
2022/05/27 09:45:55;;;;;;;;;;;15.80;99.90;;;;;;8336580;28;20285;-73
2022/05/27 09:50:01;;;;;;;;;;;15.80;99.90;;;;;;8338865;28;19921;-73
2022/05/27 09:54:29;;;;;;;;;;;15.90;99.90;;;;;;8359531;28;20330;-73
2022/05/27 09:58:33;;;;;;;;;;;15.90;99.90;;;;;;8346104;28;19940;-73
2022/05/27 10:02:36;;;;;;;;;;;15.70;99.90;;;;;;8376541;28;19929;-73
2022/05/27 10:06:38;;;;;;;;;;;15.70;99.90;;;;;;8359637;28;19924;-73
2022/05/27 10:10:42;;;;;;;;;;;15.70;99.90;;;;;;8360525;28;19970;-73
2022/05/27 10:14:50;;;;;;;;;;;15.70;99.90;;;;;;8365022;28;19948;-74
2022/05/27 10:19:21;;;;;;;;;;;15.70;99.90;;;;;;8357768;28;19924;-73
2022/05/27 10:23:25;;;;;;;;;;;15.80;99.90;;;;;;8354916;28;19920;-73
2022/05/27 10:27:34;;;;;;;;;;;15.80;99.90;;;;;;8367992;28;20356;-73
2022/05/27 10:31:36;;;;;;;;;;;15.90;99.90;;;;;;8356423;28;20284;-74
2022/05/27 10:35:38;;;;;;;;;;;16.10;99.90;;;;;;8359368;28;19921;-73
2022/05/27 10:40:01;;;;;;;;;;;16.10;99.90;;;;;;8357217;28;19989;-73
2022/05/27 10:44:12;;;;;;;;;;;16.10;99.90;;;;;;8356239;28;20329;-73
2022/05/27 10:48:32;;;;;;;;;;;16.10;99.90;;;;;;8362920;28;19928;-73
2022/05/27 10:53:00;;;;;;;;;;;16.20;99.90;;;;;;8362118;28;19929;-73
2022/05/27 11:02:05;;;;;;;;;;;16.00;99.90;;;;;;8359781;28;19933;-74
2022/05/27 11:06:07;;;;;;;;;;;16.10;99.90;;;;;;8366875;28;19931;-73
2022/05/27 11:10:28;;;;;;;;;;;16.10;99.90;;;;;;8381352;28;19927;-73
2022/05/27 11:19:09;;;;;;;;;;;16.00;99.90;;;;;;8364076;28;19929;-73
2022/05/27 11:23:43;;;;;;;;;;;16.10;99.90;;;;;;8390242;27;19924;-74
2022/05/27 11:28:04;;;;;;;;;;;16.20;99.90;;;;;;8352307;28;20348;-73
2022/05/27 11:32:05;;;;;;;;;;;16.20;99.90;;;;;;8362900;28;20360;-73
2022/05/27 11:36:13;;;;;;;;;;;16.20;99.90;;;;;;8364581;28;19935;-73
2022/05/27 11:40:15;;;;;;;;;;;16.30;99.90;;;;;;8366717;28;19928;-73
2022/05/27 11:44:35;;;;;;;;;;;16.20;99.90;;;;;;8365229;28;19928;-73
2022/05/27 11:48:46;;;;;;;;;;;16.30;99.90;;;;;;8366212;28;19928;-72
2022/05/27 11:52:56;;;;;;;;;;;16.30;99.90;;;;;;8362920;28;19932;-74
2022/05/27 11:56:58;;;;;;;;;;;16.30;99.90;;;;;;8366283;28;20265;-74
2022/05/27 12:01:06;;;;;;;;;;;16.30;99.90;;;;;;8381405;28;19982;-73
2022/05/27 12:05:14;;;;;;;;;;;16.30;99.90;;;;;;8363681;28;19928;-73
2022/05/27 12:09:22;;;;;;;;;;;16.30;99.90;;;;;;8393251;27;19924;-73
2022/05/27 12:13:46;;;;;;;;;;;16.20;99.90;;;;;;8349603;28;19929;-73
2022/05/27 12:17:49;;;;;;;;;;;16.20;99.90;;;;;;8362576;28;19927;-73
2022/05/27 12:22:00;;;;;;;;;;;16.20;99.90;;;;;;8348671;28;19925;-73
2022/05/27 12:26:02;;;;;;;;;;;16.30;99.90;;;;;;8352717;28;20024;-73
2022/05/27 12:30:08;;;;;;;;;;;16.30;99.90;;;;;;8383638;27;19928;-74
2022/05/27 12:34:25;;;;;;;;;;;16.20;99.90;;;;;;8353740;28;19920;-73
2022/05/27 12:38:33;;;;;;;;;;;16.20;99.90;;;;;;8379995;28;19929;-73
2022/05/27 12:42:39;;;;;;;;;;;16.30;99.90;;;;;;8348838;28;19929;-72
2022/05/27 12:46:42;;;;;;;;;;;16.40;99.90;;;;;;8349990;28;19929;-73
2022/05/27 12:50:44;;;;;;;;;;;16.30;99.90;;;;;;8345726;28;21213;-72
2022/05/27 12:54:48;;;;;;;;;;;16.30;99.90;;;;;;8348594;28;19932;-73
2022/05/27 13:03:45;;;;;;;;;;;16.40;99.90;;;;;;8341894;28;20242;-73
2022/05/27 13:07:48;;;;;;;;;;;16.40;99.90;;;;;;8348181;28;19928;-72
2022/05/27 13:11:49;;;;;;;;;;;16.30;99.90;;;;;;8346367;28;20360;-73
2022/05/27 13:16:01;;;;;;;;;;;16.20;99.90;;;;;;8347714;28;19985;-74
2022/05/27 13:20:06;;;;;;;;;;;16.10;99.90;;;;;;8351976;28;19921;-72
2022/05/27 13:24:11;;;;;;;;;;;16.10;99.90;;;;;;8351644;28;19928;-73
2022/05/27 13:28:24;;;;;;;;;;;16.10;99.90;;;;;;8345671;28;19929;-74
2022/05/27 13:32:28;;;;;;;;;;;16.20;99.90;;;;;;8348190;28;20006;-73
2022/05/27 13:36:35;;;;;;;;;;;16.20;99.90;;;;;;8370534;28;20060;-73
2022/05/27 13:40:37;;;;;;;;;;;16.20;99.90;;;;;;8345387;28;19939;-73
2022/05/27 13:44:40;;;;;;;;;;;16.10;99.90;;;;;;8355023;28;20655;-73
2022/05/27 13:48:51;;;;;;;;;;;16.10;99.90;;;;;;8352792;28;19935;-73
2022/05/27 13:52:53;;;;;;;;;;;16.30;99.90;;;;;;8352888;28;19920;-73
2022/05/27 13:57:01;;;;;;;;;;;16.20;99.90;;;;;;8351915;28;20012;-73
2022/05/27 14:01:04;;;;;;;;;;;16.10;99.90;;;;;;8364819;28;19962;-74
2022/05/27 14:05:09;;;;;;;;;;;16.10;99.90;;;;;;8389710;28;20288;-74
2022/05/27 14:09:15;;;;;;;;;;;16.20;99.90;;;;;;8352963;28;19925;-73
2022/05/27 14:13:19;;;;;;;;;;;16.30;99.90;;;;;;8352222;28;19976;-73
2022/05/27 14:17:22;;;;;;;;;;;16.40;99.90;;;;;;8354732;28;19935;-73
2022/05/27 14:25:44;;;;;;;;;;;16.70;99.90;;;;;;8360456;28;19939;-73
2022/05/27 14:29:46;;;;;;;;;;;16.80;99.90;;;;;;8353460;28;19929;-74
2022/05/27 14:33:49;;;;;;;;;;;16.90;99.90;;;;;;8366373;28;19985;-73
2022/05/27 14:37:51;;;;;;;;;;;16.80;99.90;;;;;;8351356;28;19951;-73
2022/05/27 14:41:53;;;;;;;;;;;16.60;99.90;;;;;;8353440;28;19921;-73
2022/05/27 14:45:56;;;;;;;;;;;16.40;99.90;;;;;;8355661;28;19931;-73
2022/05/27 14:49:59;;;;;;;;;;;16.50;99.90;;;;;;8358214;28;19968;-73
2022/05/27 14:54:19;;;;;;;;;;;16.40;99.90;;;;;;8351988;28;20296;-73
2022/05/27 14:58:27;;;;;;;;;;;16.60;99.90;;;;;;8353070;28;19928;-73
2022/05/27 15:02:31;;;;;;;;;;;16.60;99.90;;;;;;8352065;28;19935;-73
2022/05/27 15:06:36;;;;;;;;;;;16.40;99.90;;;;;;8353036;28;20399;-72
2022/05/27 15:10:39;;;;;;;;;;;16.10;99.90;;;;;;8354325;28;19921;-73
2022/05/27 15:14:42;;;;;;;;;;;16.00;99.90;;;;;;8346189;28;19924;-73
2022/05/27 15:18:57;;;;;;;;;;;15.90;99.90;;;;;;8350656;28;20201;-74
2022/05/27 15:23:00;;;;;;;;;;;15.90;99.90;;;;;;8345643;28;20054;-74
2022/05/27 15:36:03;;;;;;;;;;;15.60;99.90;;;;;;8353454;28;19925;-73
2022/05/27 15:40:05;;;;;;;;;;;15.60;99.90;;;;;;8354640;28;20269;-73
2022/05/27 15:44:07;;;;;;;;;;;15.70;99.90;;;;;;8357756;28;19932;-73
2022/05/27 15:48:09;;;;;;;;;;;16.20;99.90;;;;;;8350694;28;19928;-73
2022/05/27 15:52:11;;;;;;;;;;;16.30;99.90;;;;;;8353013;28;19921;-73
2022/05/27 15:56:12;;;;;;;;;;;16.20;99.90;;;;;;8347660;28;20418;-74
2022/05/27 16:00:14;;;;;;;;;;;15.90;99.90;;;;;;8367773;28;20536;-73
2022/05/27 16:04:16;;;;;;;;;;;16.00;99.90;;;;;;8352797;28;20391;-74
2022/05/27 16:08:18;;;;;;;;;;;16.40;99.90;;;;;;8356660;28;19939;-74
2022/05/27 16:12:20;;;;;;;4.15;1.20;;;17.10;99.90;;;;;;8350864;28;19928;-74
2022/05/27 16:20:44;;;;;;;3.53;1.00;;;18.40;99.90;;;;;;8353643;28;20155;-74
2022/05/27 16:24:46;;;;;;;3.97;1.10;;;18.20;99.90;;;;;;8367346;28;20929;-74
2022/05/27 16:28:47;;;;;;;4.32;1.30;;;18.20;99.90;;;;;;8348863;28;20401;-74
2022/05/27 16:32:49;;;;;;;5.43;1.27;;;18.00;99.90;;;;;;8350171;28;20052;-74
2022/05/27 16:36:53;;;;;;;3.72;1.10;;;18.00;99.90;;;;;;8350092;28;20055;-73
2022/05/27 16:40:54;;;;;;;8.10;1.50;;;18.10;99.90;;;;;;8352494;28;20052;-73
2022/05/27 16:44:56;;;;;;;5.13;1.40;;;17.90;99.90;;;;;;8356310;28;20417;-73
2022/05/27 16:48:58;;;;;;;8.65;1.55;;;17.50;99.90;;;;;;8348132;28;20052;-73
2022/05/27 16:53:00;;;;;;;3.85;1.17;;;17.20;99.90;;;;;;8348177;28;24560;-73
2022/05/27 16:57:02;;;;;;;5.78;1.30;;;16.90;99.90;;;;;;8350274;28;20706;-73
2022/05/27 17:01:04;;;;;;;4.57;1.23;;;16.70;99.90;;;;;;8348909;28;20053;-73
2022/05/27 17:05:07;;;;;;;5.88;0.90;;;16.60;99.90;;;;;;8371659;28;20055;-73
2022/05/27 17:09:08;;;;;;;6.75;1.50;;;16.40;99.90;;;;;;8349388;28;20393;-73
2022/05/27 17:13:14;;;;;;;4.13;1.00;;;16.40;99.90;;;;;;8350797;28;20049;-74
2022/05/27 17:17:16;;;;;;;4.72;1.30;;;16.30;99.90;;;;;;8348797;28;20606;-73
2022/05/27 17:21:18;;;;;;;5.10;1.10;;;16.30;99.90;;;;;;8349303;28;20455;-73
2022/05/27 17:25:22;;;;;;;7.55;1.58;;;16.20;99.90;;;;;;8348907;28;19982;-73
2022/05/27 17:29:24;;;;;;;5.95;1.30;;;16.10;99.90;;;;;;8343499;28;19975;-74
2022/05/27 17:33:26;;;;;;;5.50;1.10;;;15.90;99.90;;;;;;8350307;28;20056;-73
2022/05/27 17:37:28;;;;;;;6.60;1.60;;;15.90;99.90;;;;;;8380649;28;19929;-73
2022/05/27 17:41:29;;;;;;;7.20;1.40;;;15.90;99.90;;;;;;8349152;28;19925;-73
2022/05/27 17:45:31;;;;;;;4.88;1.25;;;15.70;99.90;;;;;;8356967;28;19932;-73
2022/05/27 17:53:59;;;;;;;5.35;1.45;;;15.70;99.90;;;;;;8349957;28;20075;-73
2022/05/27 17:58:01;;;;;;;6.53;1.48;;;15.70;99.90;;;;;;8352486;28;20068;-74
2022/05/27 18:02:04;;;;;;;;;;;15.80;99.90;;;;;;8357551;28;20056;-73
2022/05/27 18:06:06;;;;;;;;;;;15.70;99.90;;;;;;8375304;28;19928;-73
2022/05/27 18:10:07;;;;;;;;;;;15.60;99.90;;;;;;8351166;28;19932;-73
2022/05/27 18:14:09;;;;;;;;;;;15.60;99.90;;;;;;8353961;28;19929;-74
2022/05/27 18:18:11;;;;;;;;;;;15.60;99.90;;;;;;8357425;28;19939;-74
2022/05/27 18:22:13;;;;;;;;;;;15.60;99.90;;;;;;8355599;28;19920;-73
2022/05/27 18:26:14;;;;;;;;;;;15.60;99.90;;;;;;8356963;28;20388;-74
2022/05/27 18:30:17;;;;;;;;;;;15.60;99.90;;;;;;8356288;28;20391;-74
2022/05/27 18:34:19;;;;;;;;;;;15.60;99.90;;;;;;8365322;28;20348;-74
2022/05/27 18:38:20;;;;;;;;;;;15.60;99.90;;;;;;8367938;28;21542;-74
2022/05/27 18:42:22;;;;;;;;;;;15.60;99.90;;;;;;8366928;28;20348;-73
2022/05/27 18:46:24;;;;;;;;;;;15.60;99.90;;;;;;8394432;27;20380;-73
2022/05/27 18:50:31;;;;;;;3.90;1.10;;;15.50;99.90;;;;;;8365728;28;19928;-73
2022/05/27 18:54:34;;;;;;;2.83;0.80;;;15.50;99.90;;;;;;8366646;28;20072;-73
2022/05/27 18:58:36;;;;;;;3.60;1.00;;;15.50;99.90;;;;;;8359795;28;20044;-73
2022/05/27 19:02:38;;;;;;;;;;;15.40;99.90;;;;;;8360716;28;20093;-75
2022/05/27 19:06:40;;;;;;;5.70;1.38;;;15.50;99.90;;;;;;8355877;28;19967;-74
2022/05/27 19:10:42;;;;;;;4.00;1.10;;;15.30;99.90;;;;;;8355342;28;20052;-74
2022/05/27 19:14:45;;;;;;;6.90;1.42;;;15.20;99.90;;;;;;8356587;28;20053;-74
2022/05/27 19:23:07;;;;;;;3.60;1.08;;;14.90;99.90;;;;;;8356677;28;20049;-74
2022/05/27 19:27:15;;;;;;;5.78;2.00;;;14.80;99.90;;;;;;8368442;28;20051;-74
2022/05/27 19:31:17;;;;;;;6.10;1.25;;;14.70;99.90;;;;;;8364031;28;20052;-74
2022/05/27 19:35:20;;;;;;;4.97;1.58;;;14.60;99.90;;;;;;8368628;28;20127;-74
2022/05/27 19:39:21;;;;;;;6.78;1.45;;;14.40;99.90;;;;;;8364856;28;20079;-74
2022/05/27 19:43:23;;;;;;;6.38;1.27;;;14.50;99.90;;;;;;8363058;28;20057;-75
2022/05/27 19:47:25;;;;;;;8.93;1.77;;;14.40;99.90;;;;;;8362643;28;20140;-74
2022/05/27 19:51:33;;;;;;;4.47;1.40;;;14.40;99.90;;;;;;8366848;28;20045;-74
2022/05/27 19:55:35;;;;;;;3.97;1.08;;;14.30;99.90;;;;;;8365962;28;20052;-74
2022/05/27 19:59:36;;;;;;;4.28;1.38;;;14.20;99.90;;;;;;8363882;28;20060;-74
2022/05/27 20:08:06;;;;;;;5.47;1.15;;;14.10;99.90;;;;;;8361130;28;20040;-74
2022/05/27 20:12:10;;;;;;;4.68;1.10;;;14.10;99.90;;;;;;8360898;28;20052;-74
2022/05/27 20:16:13;;;;;;;5.40;1.05;;;14.10;99.90;;;;;;8364666;28;20064;-74
2022/05/27 20:20:17;;;;;;;4.35;1.20;;;14.00;99.90;;;;;;8359177;28;20056;-74
2022/05/27 20:24:21;;;;;;;4.43;1.30;;;14.00;99.90;;;;;;8361007;28;20044;-75
2022/05/27 20:28:23;;;;;;;4.85;1.20;;;13.90;99.90;;;;;;8378553;28;20428;-74
2022/05/27 20:32:24;;;;;;;5.95;1.42;;;13.90;99.90;;;;;;8362381;28;20052;-74
2022/05/27 20:40:48;;;;;;;3.88;1.50;;;13.80;99.90;;;;;;8360416;28;20072;-74
2022/05/27 20:44:51;;;;;;;3.50;1.00;;;13.80;99.90;;;;;;8359908;28;20089;-75
2022/05/27 20:48:52;;;;;;;4.45;1.30;;;13.70;99.90;;;;;;8363525;28;20044;-74
2022/05/27 20:52:55;;;;;;;4.72;1.20;;;13.70;99.90;;;;;;8360764;28;20060;-75
2022/05/27 20:56:57;;;;;;;4.57;1.33;;;13.60;99.90;;;;;;8359741;28;21171;-75
2022/05/27 21:00:59;;;;;;;6.13;1.40;;;13.60;99.90;;;;;;8365270;28;20527;-75
2022/05/27 21:05:02;;;;;;;4.30;1.33;;;13.50;99.90;;;;;;8400039;27;20051;-74
2022/05/27 21:09:04;;;;;;;5.20;1.67;;;13.50;99.90;;;;;;8375747;28;22002;-74
2022/05/27 21:13:06;;;;;;;4.60;1.13;;;13.40;99.90;;;;;;8371419;28;20047;-74
2022/05/27 21:17:09;;;;;;;4.45;1.30;;;13.40;99.90;;;;;;8375892;28;19920;-74
2022/05/27 21:21:15;;;;;;;4.05;1.30;;;13.40;99.90;;;;;;8376507;28;20685;-74
2022/05/27 21:25:17;;;;;;;4.30;1.30;;;13.30;99.90;;;;;;8374992;28;20048;-74
2022/05/27 21:29:19;;;;;;;6.93;2.13;;;13.20;99.90;;;;;;8381127;28;21909;-74
2022/05/27 21:33:20;;;;;;;6.43;1.50;;;13.10;99.90;;;;;;8375397;28;20040;-74
2022/05/27 21:37:22;;;;;;;7.60;1.88;;;13.00;99.90;;;;;;8382377;28;20052;-74
2022/05/27 21:41:24;;;;;;;5.30;2.00;;;12.90;99.90;;;;;;8376890;28;20099;-74
2022/05/27 21:45:26;;;;;;;7.32;2.20;;;12.80;99.90;;;;;;8374687;28;20060;-74
2022/05/27 21:49:28;;;;;;;7.13;1.60;;;12.70;99.90;;;;;;8377127;28;20047;-74
2022/05/27 21:53:30;;;;;;;5.38;1.65;;;12.70;99.90;;;;;;8403057;28;20060;-74
2022/05/27 21:57:31;;;;;;;6.38;1.73;;;12.70;99.90;;;;;;8382255;28;20051;-75
2022/05/27 22:01:34;;;;;;;6.10;1.40;;;12.70;99.90;;;;;;8373845;28;20408;-75
2022/05/27 22:05:36;;;;;;;6.95;1.58;;;12.80;99.90;;;;;;8374885;28;20064;-74
2022/05/27 22:13:58;;;;;;;5.45;1.48;;;13.00;99.90;;;;;;8374423;28;20049;-75
2022/05/27 22:18:00;;;;;;;5.80;1.52;;;13.10;99.90;;;;;;8378224;28;20416;-75
2022/05/27 22:22:01;;;;;;;6.32;1.55;;;13.10;99.90;;;;;;8375953;28;20308;-74
2022/05/27 22:26:06;;;;;;;6.47;1.92;;;13.10;99.90;;;;;;8374961;28;20048;-75
2022/05/27 22:30:08;;;;;;;5.10;1.50;;;13.20;99.90;;;;;;8379627;28;20052;-74
2022/05/27 22:34:11;;;;;;;5.28;1.30;;;13.10;99.90;;;;;;8374346;28;20049;-74
2022/05/27 22:38:14;;;;;;;3.83;1.50;;;13.10;99.90;;;;;;8377099;28;20057;-75
2022/05/27 22:42:16;;;;;;;3.42;1.20;;;13.10;99.90;;;;;;8373582;28;20048;-74
2022/05/27 22:46:18;;;;;;;3.95;1.52;;;13.10;99.90;;;;;;8380376;28;20057;-75
2022/05/27 22:50:20;;;;;;;7.07;1.50;;;13.00;99.90;;;;;;8383721;28;20048;-74
2022/05/27 22:54:21;;;;;;;10.02;1.90;;;13.00;99.90;;;;;;8387569;28;20056;-74
2022/05/27 22:58:23;;;;;;;5.95;1.35;;;13.10;99.90;;;;;;8386154;28;20047;-75
2022/05/27 23:02:25;;;;;;;4.95;1.40;;;13.00;99.90;;;;;;8382575;28;20048;-74
2022/05/27 23:06:27;;;;;;;7.50;2.17;;;13.00;99.90;;;;;;8381746;28;20048;-75
2022/05/27 23:10:28;;;;;;;6.35;2.10;;;12.90;99.90;;;;;;8379813;28;20045;-74
2022/05/27 23:18:51;;;;;;;6.80;1.90;;;12.60;99.90;;;;;;8382923;28;19920;-74
2022/05/27 23:22:52;;;;;;;5.75;1.85;;;12.50;99.90;;;;;;8380529;28;20492;-74
2022/05/27 23:26:55;;;;;;;4.95;1.75;;;12.40;99.90;;;;;;8379881;28;20059;-75
2022/05/27 23:30:57;;;;;;;5.45;1.60;;;12.50;99.90;;;;;;8381753;28;20048;-74
2022/05/27 23:34:59;;;;;;;4.60;1.80;;;12.50;99.90;;;;;;8379369;28;20091;-75
2022/05/27 23:39:01;;;;;;;4.90;1.80;;;12.60;99.90;;;;;;8383826;28;20472;-74
2022/05/27 23:43:03;;;;;;;5.97;1.80;;;12.60;99.90;;;;;;8381433;28;20124;-75
2022/05/27 23:47:05;;;;;;;5.30;1.73;;;12.60;99.90;;;;;;8378950;28;20397;-75
2022/05/27 23:51:10;;;;;;;3.83;1.48;;;12.60;99.90;;;;;;8383028;28;20359;-75
2022/05/27 23:55:12;;;;;;;5.57;1.77;;;12.50;99.90;;;;;;8378059;28;20059;-75
2022/05/27 23:59:14;;;;;;;4.93;1.50;;;12.50;99.90;;;;;;8379371;28;20044;-75
